createdAt,value
2019-02-17T20:06:18.266Z,45.60
2019-02-17T20:08:48.600Z,43.60
2019-02-17T20:11:18.860Z,43.80
2019-02-17T20:13:48.687Z,42.00
2019-02-17T20:16:19.083Z,41.60
2019-02-17T20:18:49.342Z,42.00
2019-02-17T20:21:18.801Z,41.40
2019-02-17T20:23:49.478Z,40.80
2019-02-17T20:26:21.270Z,40.50
2019-02-17T20:28:57.128Z,40.10
2019-02-17T20:31:23.271Z,39.90
2019-02-17T20:33:53.734Z,39.90
2019-02-17T20:36:24.745Z,39.90
2019-02-17T20:38:54.466Z,40.00
2019-02-17T20:41:24.036Z,39.80
2019-02-17T20:43:54.028Z,40.00
2019-02-17T20:46:23.725Z,40.00
2019-02-17T20:48:53.850Z,40.00
2019-02-17T20:51:23.633Z,40.00
2019-02-17T20:53:53.613Z,40.00
2019-02-17T20:56:24.003Z,40.20
2019-02-17T20:58:53.506Z,40.40
2019-02-17T21:01:23.023Z,40.30
2019-02-17T21:03:52.614Z,40.30
2019-02-17T21:06:22.120Z,40.20
2019-02-17T21:08:52.330Z,40.40
2019-02-17T21:11:22.387Z,40.30
2019-02-17T21:13:52.478Z,40.10
2019-02-17T21:16:23.417Z,40.10
2019-02-17T21:18:53.213Z,40.40
2019-02-17T21:24:34.579Z,40.50
2019-02-17T21:34:30.009Z,39.60
2019-02-17T21:37:01.051Z,40.40
2019-02-17T21:39:30.643Z,40.30
2019-02-17T21:42:00.273Z,39.20
2019-02-17T21:44:30.362Z,38.00
2019-02-17T21:46:59.810Z,37.20
2019-02-17T21:49:29.653Z,36.70
2019-02-17T21:51:59.270Z,37.40
2019-02-17T21:54:29.939Z,36.70
2019-02-17T21:56:59.465Z,36.90
2019-02-17T21:59:29.481Z,37.10
2019-02-17T22:01:59.162Z,39.70
2019-02-17T22:04:28.980Z,38.00
2019-02-17T22:06:58.634Z,38.00
